createdAt,value
2022-12-14T00:00:02.508Z,-17.30
2022-12-14T00:03:18.029Z,-16.44
2022-12-14T00:06:25.003Z,-16.55
2022-12-14T00:09:29.487Z,-16.13
2022-12-14T00:12:33.874Z,-15.83
2022-12-14T00:15:39.186Z,-15.54
2022-12-14T00:18:45.268Z,-14.87
2022-12-14T00:21:49.963Z,-14.95
2022-12-14T00:24:54.243Z,-15.06
2022-12-14T00:27:58.689Z,-14.66
2022-12-14T00:31:03.408Z,-15.19
2022-12-14T00:34:07.903Z,-14.76
2022-12-14T00:37:12.872Z,-15.24
2022-12-14T00:40:17.284Z,-15.48
2022-12-14T00:43:22.077Z,-15.05
2022-12-14T00:46:26.842Z,-15.21
2022-12-14T00:49:31.118Z,-15.44
2022-12-14T00:52:35.612Z,-15.50
2022-12-14T00:55:41.521Z,-15.58
2022-12-14T00:58:51.123Z,-15.42
2022-12-14T01:01:55.765Z,-15.50
2022-12-14T01:05:00.233Z,-15.63
2022-12-14T01:08:05.324Z,-15.05
2022-12-14T01:11:11.029Z,-15.07
2022-12-14T01:14:18.144Z,-15.16
2022-12-14T01:17:22.586Z,-14.87
2022-12-14T01:20:27.163Z,-14.76
2022-12-14T01:23:31.393Z,-14.38
2022-12-14T01:26:39.770Z,-14.92
2022-12-14T01:29:44.136Z,-14.69
2022-12-14T01:32:48.578Z,-14.54
2022-12-14T01:35:53.046Z,-14.36
2022-12-14T01:38:59.929Z,-14.67
2022-12-14T01:42:04.608Z,-14.77
2022-12-14T01:45:19.975Z,-14.51
2022-12-14T01:48:24.952Z,-15.34
2022-12-14T01:51:31.185Z,-15.32
2022-12-14T01:54:39.000Z,-15.07
2022-12-14T01:57:47.067Z,-14.77
2022-12-14T02:00:56.615Z,-15.22
2022-12-14T02:04:02.421Z,-14.54
2022-12-14T02:07:07.190Z,-14.92
2022-12-14T02:10:12.618Z,-14.73
2022-12-14T02:13:22.907Z,-14.48
2022-12-14T02:16:27.471Z,-15.04
2022-12-14T02:19:32.125Z,-14.61
2022-12-14T02:23:06.511Z,-13.95
2022-12-14T02:26:38.181Z,-14.85
2022-12-14T02:30:07.746Z,-14.53
2022-12-14T02:33:43.012Z,-14.64
2022-12-14T02:37:01.159Z,-14.74
2022-12-14T02:40:23.537Z,-14.41
2022-12-14T02:43:35.744Z,-14.43
2022-12-14T02:47:26.282Z,-14.71
2022-12-14T02:50:36.240Z,-14.21
2022-12-14T02:53:47.536Z,-13.83
2022-12-14T02:56:57.821Z,-14.37
2022-12-14T03:00:05.284Z,-13.88
2022-12-14T03:03:09.939Z,-13.87
2022-12-14T03:06:29.298Z,-14.56
2022-12-14T03:09:34.296Z,-14.35
2022-12-14T03:12:42.090Z,-13.81
2022-12-14T03:15:59.474Z,-13.85
2022-12-14T03:19:31.629Z,-14.73
2022-12-14T03:23:04.226Z,-14.14
2022-12-14T03:26:16.915Z,-14.32
2022-12-14T03:29:26.783Z,-15.31
2022-12-14T03:32:33.438Z,-15.14
2022-12-14T03:35:47.668Z,-15.03
2022-12-14T03:38:55.074Z,-14.29
2022-12-14T03:42:12.808Z,-14.95
2022-12-14T03:45:22.151Z,-15.28
2022-12-14T03:48:36.214Z,-14.95
2022-12-14T03:51:59.017Z,-14.80
2022-12-14T03:55:24.394Z,-14.20
2022-12-14T03:58:49.105Z,-14.11
2022-12-14T04:02:30.172Z,-14.38
2022-12-14T04:05:48.901Z,-14.63
2022-12-14T04:09:30.617Z,-14.37
2022-12-14T04:13:00.085Z,-14.27
2022-12-14T04:16:29.887Z,-14.33
2022-12-14T04:20:02.481Z,-14.48
2022-12-14T04:23:15.279Z,-14.88
2022-12-14T04:26:28.861Z,-14.48
2022-12-14T04:29:53.743Z,-14.06
2022-12-14T04:33:22.607Z,-14.30
2022-12-14T04:36:40.196Z,-14.04
2022-12-14T04:39:51.710Z,-14.42
2022-12-14T04:43:05.036Z,-14.07
2022-12-14T04:46:11.196Z,-14.25
2022-12-14T04:49:18.270Z,-14.06
2022-12-14T04:52:33.325Z,-14.60
2022-12-14T04:55:53.278Z,-14.66
2022-12-14T04:58:57.951Z,-14.36
2022-12-14T05:02:08.773Z,-14.82
2022-12-14T05:05:27.098Z,-14.70
2022-12-14T05:08:50.128Z,-14.78
2022-12-14T05:12:01.590Z,-15.07
2022-12-14T05:15:08.927Z,-14.85
2022-12-14T05:18:13.586Z,-14.79
2022-12-14T05:21:36.506Z,-14.89
2022-12-14T05:24:40.976Z,-15.32
2022-12-14T05:27:45.477Z,-15.32
2022-12-14T05:30:49.884Z,-15.14
2022-12-14T05:33:54.320Z,-15.36
2022-12-14T05:36:59.063Z,-15.46
2022-12-14T05:40:03.738Z,-15.39
2022-12-14T05:43:10.005Z,-15.94
2022-12-14T05:46:14.376Z,-15.56
2022-12-14T05:49:18.792Z,-15.31
2022-12-14T05:52:26.620Z,-14.81
2022-12-14T05:55:30.867Z,-15.49
2022-12-14T05:58:36.451Z,-15.31
2022-12-14T06:01:40.745Z,-15.19
2022-12-14T06:04:45.202Z,-15.21
2022-12-14T06:07:49.523Z,-15.28
2022-12-14T06:10:54.018Z,-15.02
2022-12-14T06:13:58.477Z,-15.27
2022-12-14T06:17:03.400Z,-15.46
2022-12-14T06:20:08.001Z,-15.40
2022-12-14T06:23:12.732Z,-15.20
2022-12-14T06:26:18.196Z,-15.28
2022-12-14T06:29:22.189Z,-15.20
2022-12-14T06:32:27.235Z,-15.50
2022-12-14T06:35:31.483Z,-15.23
2022-12-14T06:38:36.797Z,-15.77
2022-12-14T06:41:41.487Z,-15.79
2022-12-14T06:44:45.961Z,-15.80
2022-12-14T06:47:51.134Z,-16.25
2022-12-14T06:51:02.231Z,-15.61
2022-12-14T06:54:06.973Z,-15.56
2022-12-14T06:57:11.389Z,-16.01
2022-12-14T07:00:16.062Z,-15.63
2022-12-14T07:03:20.633Z,-15.50
2022-12-14T07:06:27.373Z,-15.28
2022-12-14T07:09:31.863Z,-15.53
2022-12-14T07:12:36.471Z,-15.51
2022-12-14T07:15:40.975Z,-15.70
2022-12-14T07:18:45.431Z,-15.33
2022-12-14T07:21:49.919Z,-15.69
2022-12-14T07:24:54.346Z,-15.24
2022-12-14T07:27:58.761Z,-15.57
2022-12-14T07:31:03.440Z,-15.80
2022-12-14T07:34:07.940Z,-15.56
2022-12-14T07:37:12.242Z,-15.37
2022-12-14T07:40:16.603Z,-15.64
2022-12-14T07:43:21.104Z,-15.74
2022-12-14T07:46:27.916Z,-15.95
2022-12-14T07:49:32.283Z,-15.72
2022-12-14T07:52:37.761Z,-15.43
2022-12-14T07:55:42.330Z,-15.54
2022-12-14T07:58:47.069Z,-15.53
2022-12-14T08:01:54.349Z,-15.54
2022-12-14T08:04:58.869Z,-15.45
2022-12-14T08:08:03.328Z,-15.49
2022-12-14T08:11:08.570Z,-15.33
2022-12-14T08:14:18.140Z,-15.31
2022-12-14T08:17:22.319Z,-15.76
2022-12-14T08:20:26.857Z,-15.38
2022-12-14T08:23:31.924Z,-15.66
2022-12-14T08:26:36.820Z,-15.43
2022-12-14T08:29:41.358Z,-15.61
2022-12-14T08:32:45.826Z,-15.51
2022-12-14T08:35:50.530Z,-15.52
2022-12-14T08:38:56.711Z,-15.84
2022-12-14T08:42:01.290Z,-15.95
2022-12-14T08:45:06.110Z,-15.98
2022-12-14T08:48:10.392Z,-15.95
2022-12-14T08:51:14.859Z,-15.86
2022-12-14T08:54:20.332Z,-15.79
2022-12-14T08:57:24.649Z,-15.83
2022-12-14T09:00:29.287Z,-15.86
2022-12-14T09:03:33.935Z,-15.82
2022-12-14T09:06:40.732Z,-15.71
2022-12-14T09:09:45.393Z,-15.47
2022-12-14T09:12:49.790Z,-15.54
2022-12-14T09:16:07.257Z,-15.56
2022-12-14T09:19:11.776Z,-15.53
2022-12-14T09:22:16.243Z,-15.46
2022-12-14T09:25:20.699Z,-15.46
2022-12-14T09:28:25.224Z,-15.46
2022-12-14T09:31:33.499Z,-15.56
2022-12-14T09:34:37.973Z,-15.51
2022-12-14T09:37:42.522Z,-15.54
2022-12-14T09:40:52.063Z,-15.29
2022-12-14T09:44:00.913Z,-16.01
2022-12-14T09:47:22.320Z,-15.54
2022-12-14T09:50:28.022Z,-15.49
2022-12-14T09:53:32.791Z,-15.44
2022-12-14T09:56:39.723Z,-15.39
2022-12-14T09:59:44.804Z,-15.23
2022-12-14T10:03:43.060Z,-15.42
2022-12-14T10:07:05.763Z,-15.76
2022-12-14T10:10:31.543Z,-15.41
2022-12-14T10:13:40.947Z,-15.54
2022-12-14T10:17:22.045Z,-15.22
2022-12-14T10:20:32.847Z,-15.29
2022-12-14T10:23:37.339Z,-15.74
2022-12-14T10:26:52.413Z,-15.32
2022-12-14T10:30:09.232Z,-15.77
2022-12-14T10:33:32.606Z,-15.45
2022-12-14T10:37:02.973Z,-15.44
2022-12-14T10:40:33.748Z,-15.46
2022-12-14T10:43:53.386Z,-15.29
2022-12-14T10:47:30.689Z,-15.46
2022-12-14T10:50:50.760Z,-15.50
2022-12-14T10:54:02.386Z,-15.49
2022-12-14T10:57:07.352Z,-15.64
2022-12-14T11:00:22.947Z,-15.54
2022-12-14T11:03:29.919Z,-15.43
2022-12-14T11:06:36.696Z,-15.44
2022-12-14T11:09:45.370Z,-15.74
2022-12-14T11:13:04.893Z,-15.81
2022-12-14T11:16:33.587Z,-15.69
2022-12-14T11:19:42.416Z,-15.73
2022-12-14T11:22:57.074Z,-15.65
2022-12-14T11:26:06.326Z,-15.84
2022-12-14T11:29:31.298Z,-15.79
2022-12-14T11:32:36.152Z,-15.68
2022-12-14T11:35:50.611Z,-15.86
2022-12-14T11:38:58.180Z,-15.67
2022-12-14T11:42:05.160Z,-15.63
2022-12-14T11:45:27.769Z,-15.67
2022-12-14T11:48:33.120Z,-15.93
2022-12-14T11:51:37.946Z,-16.28
2022-12-14T11:54:50.154Z,-15.90
2022-12-14T11:58:00.629Z,-15.91
2022-12-14T12:01:28.296Z,-15.89
2022-12-14T12:04:35.038Z,-16.01
2022-12-14T12:07:46.730Z,-16.12
2022-12-14T12:10:54.576Z,-15.60
2022-12-14T12:14:40.153Z,-15.84
2022-12-14T12:17:48.218Z,-15.99
2022-12-14T12:21:13.981Z,-15.87
2022-12-14T12:24:27.955Z,-16.23
2022-12-14T12:27:34.211Z,-16.12
2022-12-14T12:30:43.575Z,-16.19
2022-12-14T12:33:51.532Z,-16.05
2022-12-14T12:37:25.466Z,-16.39
2022-12-14T12:40:31.428Z,-16.50
2022-12-14T12:43:43.266Z,-16.51
2022-12-14T12:47:26.761Z,-16.44
2022-12-14T12:50:40.350Z,-16.55
2022-12-14T12:53:49.033Z,-16.42
2022-12-14T12:56:56.843Z,-16.72
2022-12-14T13:00:02.306Z,-16.65
2022-12-14T13:03:33.069Z,-16.41
2022-12-14T13:07:24.332Z,-16.56
2022-12-14T13:10:50.637Z,-16.64
2022-12-14T13:14:25.397Z,-16.81
2022-12-14T13:17:35.177Z,-16.76
2022-12-14T13:20:39.546Z,-17.03
2022-12-14T13:23:45.348Z,-17.00
2022-12-14T13:27:05.518Z,-17.18
2022-12-14T13:30:36.148Z,-16.92
2022-12-14T13:33:52.145Z,-17.13
2022-12-14T13:37:33.667Z,-17.26
2022-12-14T13:40:54.203Z,-17.00
2022-12-14T13:44:21.277Z,-17.34
2022-12-14T13:47:44.898Z,-17.42
2022-12-14T13:51:02.017Z,-17.34
2022-12-14T13:54:28.401Z,-17.62
2022-12-14T13:57:33.057Z,-17.19
2022-12-14T14:00:49.092Z,-17.34
2022-12-14T14:03:56.189Z,-17.40
2022-12-14T14:07:38.264Z,-17.24
2022-12-14T14:10:43.103Z,-17.30
2022-12-14T14:14:07.564Z,-17.22
2022-12-14T14:17:26.759Z,-17.35
2022-12-14T14:20:45.413Z,-17.49
2022-12-14T14:23:59.391Z,-17.44
2022-12-14T14:27:18.590Z,-17.66
2022-12-14T14:30:30.876Z,-17.57
2022-12-14T14:33:49.435Z,-17.58
2022-12-14T14:36:54.516Z,-17.58
2022-12-14T14:40:22.000Z,-17.27
2022-12-14T14:43:38.678Z,-17.34
2022-12-14T14:46:47.331Z,-17.27
2022-12-14T14:50:00.069Z,-17.60
2022-12-14T14:53:27.178Z,-17.34
2022-12-14T14:56:31.602Z,-17.39
2022-12-14T14:59:51.049Z,-17.38
2022-12-14T15:02:57.040Z,-17.69
2022-12-14T15:06:02.264Z,-17.79
2022-12-14T15:09:31.944Z,-17.93
2022-12-14T15:13:01.041Z,-18.29
2022-12-14T15:16:05.741Z,-18.55
2022-12-14T15:19:37.210Z,-18.12
2022-12-14T15:22:44.972Z,-17.84
2022-12-14T15:26:00.856Z,-17.91
2022-12-14T15:29:05.475Z,-18.20
2022-12-14T15:32:18.529Z,-18.09
2022-12-14T15:35:29.645Z,-17.83
2022-12-14T15:38:37.453Z,-18.38
2022-12-14T15:41:42.064Z,-18.37
2022-12-14T15:44:54.233Z,-17.98
2022-12-14T15:48:15.237Z,-18.24
2022-12-14T15:51:20.143Z,-18.15
2022-12-14T15:54:27.173Z,-18.88
2022-12-14T15:57:33.073Z,-18.67
2022-12-14T16:00:43.724Z,-18.70
2022-12-14T16:03:52.637Z,-18.65
2022-12-14T16:07:09.329Z,-18.72
2022-12-14T16:10:33.671Z,-18.54
2022-12-14T16:13:45.204Z,-18.91
2022-12-14T16:16:50.085Z,-18.74
2022-12-14T16:20:21.953Z,-18.73
2022-12-14T16:23:33.826Z,-19.01
2022-12-14T16:26:39.487Z,-18.45
2022-12-14T16:29:50.087Z,-18.68
2022-12-14T16:33:08.184Z,-18.94
2022-12-14T16:36:21.868Z,-18.94
2022-12-14T16:39:39.581Z,-19.11
2022-12-14T16:42:45.728Z,-19.28
2022-12-14T16:46:05.501Z,-19.36
2022-12-14T16:49:31.186Z,-19.16
2022-12-14T16:52:37.036Z,-19.19
2022-12-14T16:56:07.166Z,-19.56
2022-12-14T16:59:28.516Z,-19.02
2022-12-14T17:02:41.249Z,-19.24
2022-12-14T17:05:56.525Z,-19.18
2022-12-14T17:09:01.026Z,-18.97
2022-12-14T17:12:15.040Z,-19.41
2022-12-14T17:15:22.766Z,-19.47
2022-12-14T17:18:34.421Z,-19.97
2022-12-14T17:21:39.192Z,-19.70
2022-12-14T17:24:43.904Z,-19.54
2022-12-14T17:27:49.443Z,-19.47
2022-12-14T17:30:58.247Z,-19.62
2022-12-14T17:34:02.668Z,-19.52
2022-12-14T17:37:17.750Z,-19.83
2022-12-14T17:40:22.836Z,-19.80
2022-12-14T17:43:29.120Z,-19.83
2022-12-14T17:46:34.039Z,-19.99
2022-12-14T17:49:40.065Z,-19.98
2022-12-14T17:52:45.329Z,-20.01
2022-12-14T17:55:49.816Z,-20.21
2022-12-14T17:58:54.109Z,-20.13
2022-12-14T18:02:01.176Z,-20.19
2022-12-14T18:05:05.839Z,-20.29
2022-12-14T18:08:11.005Z,-20.68
2022-12-14T18:11:22.332Z,-19.96
2022-12-14T18:14:27.248Z,-20.27
2022-12-14T18:17:31.653Z,-20.34
2022-12-14T18:20:37.264Z,-20.39
2022-12-14T18:23:41.613Z,-20.42
2022-12-14T18:26:46.825Z,-20.24
2022-12-14T18:29:52.006Z,-20.39
2022-12-14T18:32:59.713Z,-20.68
2022-12-14T18:36:04.603Z,-20.71
2022-12-14T18:39:09.865Z,-20.60
2022-12-14T18:42:19.198Z,-20.65
2022-12-14T18:45:32.067Z,-20.52
2022-12-14T18:48:36.589Z,-20.81
2022-12-14T18:51:41.953Z,-20.54
2022-12-14T18:54:46.249Z,-20.58
2022-12-14T18:57:52.230Z,-20.55
2022-12-14T19:00:59.421Z,-20.69
2022-12-14T19:04:03.943Z,-20.72
2022-12-14T19:07:08.527Z,-20.56
2022-12-14T19:10:24.759Z,-20.54
2022-12-14T19:13:29.473Z,-20.57
2022-12-14T19:16:34.219Z,-20.55
2022-12-14T19:19:44.413Z,-20.59
2022-12-14T19:22:49.902Z,-20.93
2022-12-14T19:25:54.268Z,-20.88
2022-12-14T19:28:58.709Z,-20.54
2022-12-14T19:32:05.518Z,-20.62
2022-12-14T19:35:10.837Z,-20.81
2022-12-14T19:38:17.091Z,-20.76
2022-12-14T19:41:22.342Z,-20.69
2022-12-14T19:44:27.085Z,-20.76
2022-12-14T19:47:31.590Z,-21.04
2022-12-14T19:50:36.169Z,-20.69
2022-12-14T19:53:41.938Z,-21.02
2022-12-14T19:56:46.626Z,-20.85
2022-12-14T19:59:53.460Z,-20.97
2022-12-14T20:02:58.223Z,-20.95
2022-12-14T20:06:03.347Z,-20.89
2022-12-14T20:09:07.432Z,-20.89
2022-12-14T20:12:12.258Z,-21.05
2022-12-14T20:15:16.862Z,-20.97
2022-12-14T20:18:23.413Z,-21.14
2022-12-14T20:21:30.152Z,-21.03
2022-12-14T20:24:34.598Z,-21.08
2022-12-14T20:27:41.016Z,-20.91
2022-12-14T20:30:48.005Z,-20.99
2022-12-14T20:33:52.908Z,-21.13
2022-12-14T20:36:57.538Z,-20.93
2022-12-14T20:40:01.876Z,-21.11
2022-12-14T20:43:07.721Z,-21.01
2022-12-14T20:46:25.728Z,-21.04
2022-12-14T20:49:33.578Z,-21.09
2022-12-14T20:52:37.911Z,-20.91
2022-12-14T20:55:42.316Z,-21.18
2022-12-14T20:58:48.458Z,-21.11
2022-12-14T21:01:56.247Z,-20.91
2022-12-14T21:05:01.013Z,-20.77
2022-12-14T21:08:07.601Z,-20.61
2022-12-14T21:11:30.524Z,-20.67
2022-12-14T21:14:37.843Z,-20.79
2022-12-14T21:17:42.403Z,-20.93
2022-12-14T21:20:49.217Z,-20.76
2022-12-14T21:23:53.939Z,-20.90
2022-12-14T21:26:58.447Z,-21.20
2022-12-14T21:30:02.929Z,-20.76
2022-12-14T21:33:08.217Z,-21.20
2022-12-14T21:36:13.325Z,-21.29
2022-12-14T21:39:19.116Z,-21.19
2022-12-14T21:42:24.947Z,-21.27
2022-12-14T21:45:29.286Z,-20.95
2022-12-14T21:48:34.030Z,-21.14
2022-12-14T21:51:38.726Z,-20.99
2022-12-14T21:54:43.785Z,-21.19
2022-12-14T21:58:06.296Z,-21.20
2022-12-14T22:01:11.268Z,-21.33
2022-12-14T22:04:15.374Z,-21.22
2022-12-14T22:07:22.509Z,-22.19
2022-12-14T22:10:27.198Z,-20.92
2022-12-14T22:13:31.808Z,-20.89
2022-12-14T22:16:36.332Z,-21.06
2022-12-14T22:19:40.654Z,-21.33
2022-12-14T22:22:45.778Z,-21.64
2022-12-14T22:25:51.004Z,-21.39
2022-12-14T22:28:55.690Z,-21.23
2022-12-14T22:32:00.354Z,-21.08
2022-12-14T22:35:04.976Z,-21.16
2022-12-14T22:38:09.255Z,-20.74
2022-12-14T22:41:17.892Z,-21.17
2022-12-14T22:44:22.118Z,-21.20
2022-12-14T22:47:26.443Z,-20.98
2022-12-14T22:50:30.782Z,-21.47
2022-12-14T22:53:35.350Z,-21.28
2022-12-14T22:56:49.875Z,-20.99
2022-12-14T23:00:03.599Z,-21.39
2022-12-14T23:03:08.856Z,-20.97
2022-12-14T23:06:16.472Z,-21.29
2022-12-14T23:09:39.364Z,-21.21
2022-12-14T23:13:02.591Z,-21.28
2022-12-14T23:16:25.922Z,-21.18
2022-12-14T23:19:48.663Z,-20.94
2022-12-14T23:23:11.826Z,-21.14
2022-12-14T23:26:34.622Z,-20.70
2022-12-14T23:29:57.997Z,-20.98
2022-12-14T23:33:20.410Z,-20.90
2022-12-14T23:36:43.174Z,-20.83
2022-12-14T23:40:06.468Z,-20.62
2022-12-14T23:43:30.250Z,-21.75
2022-12-14T23:46:53.598Z,-20.34
2022-12-14T23:50:16.400Z,-20.07
2022-12-14T23:53:39.376Z,-19.72
2022-12-14T23:57:02.309Z,-19.63
